Time;durP1;ratioP1;P1;durP2;ratioP2;P2;SDS_P1;SDS_P2;PMS_P1;PMS_P2;Temp;Humidity;BMP_temperature;BMP_pressure;BME280_temperature;BME280_humidity;BME280_pressure;Samples;Min_cycle;Max_cycle;Signal;HPM_P1;HPM_P2
2023/10/31 00:01:11;;;;;;;15.90;6.43;;;;;;;11.96;89.97;95399.91;4991098;28;20540;-80
2023/10/31 00:03:36;;;;;;;13.00;6.20;;;;;;;11.75;89.71;95399.22;5041062;28;20227;-79
2023/10/31 00:06:02;;;;;;;14.17;6.23;;;;;;;11.69;90.81;95390.31;5040359;28;20716;-81
2023/10/31 00:08:27;;;;;;;15.60;6.33;;;;;;;11.57;91.16;95402.31;4980835;28;20353;-80
2023/10/31 00:10:53;;;;;;;16.00;6.60;;;;;;;11.61;90.94;95395.66;5038635;28;20228;-79
2023/10/31 00:13:18;;;;;;;16.87;6.60;;;;;;;11.31;92.54;95386.44;4952587;28;20242;-79
2023/10/31 00:15:44;;;;;;;16.93;6.23;;;;;;;11.39;92.13;95394.16;4990287;28;20238;-80
2023/10/31 00:18:09;;;;;;;14.73;6.17;;;;;;;11.61;91.36;95392.25;4968377;28;20238;-81
2023/10/31 00:20:35;;;;;;;13.57;6.00;;;;;;;11.41;91.14;95386.91;4971848;28;20234;-82
2023/10/31 00:23:00;;;;;;;14.67;6.07;;;;;;;11.28;92.47;95389.44;4979248;28;20240;-70
2023/10/31 00:25:25;;;;;;;15.80;6.50;;;;;;;11.43;91.65;95384.91;4988660;28;20223;-70
2023/10/31 00:27:51;;;;;;;14.57;6.17;;;;;;;11.40;92.02;95391.31;5036821;28;20224;-71
2023/10/31 00:30:16;;;;;;;18.37;6.23;;;;;;;11.50;91.19;95390.97;5037490;28;20230;-70
2023/10/31 00:32:42;;;;;;;12.53;5.70;;;;;;;11.49;91.35;95382.31;4979941;28;20374;-69
2023/10/31 00:35:08;;;;;;;13.73;6.10;;;;;;;11.50;91.30;95383.13;4992107;28;20235;-69
2023/10/31 00:37:33;;;;;;;14.23;5.80;;;;;;;11.52;91.11;95376.69;4994408;28;20235;-70
2023/10/31 00:39:59;;;;;;;14.67;5.80;;;;;;;11.43;91.96;95379.66;5037081;28;20317;-70
2023/10/31 00:42:24;;;;;;;13.87;6.10;;;;;;;11.24;92.64;95382.97;4970661;28;20224;-70
2023/10/31 00:44:50;;;;;;;14.83;6.33;;;;;;;11.47;91.39;95373.81;5057177;28;20247;-69
2023/10/31 00:47:15;;;;;;;13.70;6.03;;;;;;;11.44;91.94;95363.72;4994552;28;20243;-70
2023/10/31 00:49:41;;;;;;;16.17;6.17;;;;;;;11.48;91.64;95369.41;4950604;28;20310;-70
2023/10/31 00:52:06;;;;;;;12.60;6.03;;;;;;;11.28;93.20;95368.47;5055269;28;20248;-70
2023/10/31 00:54:32;;;;;;;14.53;6.23;;;;;;;11.29;92.66;95367.47;5011940;28;20235;-69
2023/10/31 00:56:57;;;;;;;16.23;6.67;;;;;;;11.41;92.98;95369.38;5043140;28;20347;-70
2023/10/31 00:59:23;;;;;;;15.23;6.07;;;;;;;11.38;92.52;95361.88;4988349;28;20231;-70
2023/10/31 01:01:49;;;;;;;13.07;6.10;;;;;;;11.36;92.47;95356.03;4987592;28;20229;-70
2023/10/31 01:04:14;;;;;;;18.57;6.50;;;;;;;11.14;93.38;95354.47;5038710;28;20228;-70
2023/10/31 01:06:43;;;;;;;16.47;6.07;;;;;;;11.42;91.83;95354.44;4968503;28;20904;-70
2023/10/31 01:09:11;;;;;;;12.80;6.17;;;;;;;11.20;92.62;95350.28;5054878;28;20223;-70
2023/10/31 01:11:37;;;;;;;14.93;6.03;;;;;;;11.27;92.89;95346.69;4949390;28;20232;-70
2023/10/31 01:14:03;;;;;;;15.47;6.27;;;;;;;11.18;93.04;95354.91;5035200;28;20231;-69
2023/10/31 01:16:28;;;;;;;17.03;6.10;;;;;;;11.09;93.47;95345.56;5037115;28;20231;-70
2023/10/31 01:18:53;;;;;;;14.63;6.30;;;;;;;11.17;93.94;95345.44;5041214;28;20219;-70
2023/10/31 01:21:19;;;;;;;15.50;6.47;;;;;;;10.95;94.18;95343.88;4994580;28;20223;-71
2023/10/31 01:23:44;;;;;;;13.97;6.27;;;;;;;10.93;94.65;95345.88;5016886;28;20231;-68
2023/10/31 01:26:10;;;;;;;15.37;6.30;;;;;;;10.97;94.23;95339.25;4975330;28;20230;-69
2023/10/31 01:28:35;;;;;;;12.73;5.87;;;;;;;11.03;94.17;95338.50;4955229;28;20306;-80
2023/10/31 01:31:01;;;;;;;16.87;6.37;;;;;;;11.08;93.18;95339.53;4991677;28;20235;-79
2023/10/31 01:33:26;;;;;;;17.40;6.63;;;;;;;10.89;94.34;95339.41;4984138;28;20236;-79
2023/10/31 01:35:52;;;;;;;15.30;6.40;;;;;;;10.83;94.95;95335.75;5053309;28;20215;-80
2023/10/31 01:38:18;;;;;;;14.33;6.50;;;;;;;10.97;94.50;95334.00;4999579;28;20318;-80
2023/10/31 01:40:45;;;;;;;15.23;6.90;;;;;;;10.94;94.58;95332.56;5041846;28;20235;-79
2023/10/31 01:43:10;;;;;;;17.73;6.80;;;;;;;10.89;94.96;95328.94;4970033;28;20266;-80
2023/10/31 01:45:36;;;;;;;19.73;7.23;;;;;;;11.03;94.19;95333.25;4950721;28;20219;-80
2023/10/31 01:48:02;;;;;;;18.77;7.13;;;;;;;11.12;93.83;95339.97;4957122;28;20323;-80
2023/10/31 01:50:28;;;;;;;17.00;6.97;;;;;;;11.21;93.04;95341.41;4937404;28;20224;-80
2023/10/31 01:52:54;;;;;;;15.23;7.53;;;;;;;10.90;94.20;95338.41;4957155;28;20284;-80
2023/10/31 01:55:19;;;;;;;18.50;7.40;;;;;;;11.10;93.71;95334.91;4938281;28;20235;-80
2023/10/31 01:57:45;;;;;;;24.30;7.50;;;;;;;10.90;94.86;95331.34;4938499;28;20236;-80
2023/10/31 02:00:11;;;;;;;19.70;8.03;;;;;;;10.98;93.94;95333.84;5007180;28;20239;-79
2023/10/31 02:02:36;;;;;;;21.20;7.50;;;;;;;10.73;95.17;95322.97;4956976;28;20243;-80
2023/10/31 02:05:02;;;;;;;18.13;7.80;;;;;;;10.82;95.47;95319.22;4927912;28;20227;-80
2023/10/31 02:07:27;;;;;;;16.73;7.30;;;;;;;10.91;94.75;95326.94;4936806;28;20257;-80
2023/10/31 02:09:52;;;;;;;21.43;8.17;;;;;;;10.74;95.25;95316.75;4933716;28;20250;-81
2023/10/31 02:12:34;;;;;;;18.60;7.83;;;;;;;10.87;94.58;95316.00;4919241;28;20235;-79
2023/10/31 02:15:00;;;;;;;17.37;7.90;;;;;;;10.85;94.78;95312.78;4939144;28;20266;-81
2023/10/31 02:17:25;;;;;;;17.27;7.63;;;;;;;10.52;96.18;95324.81;4950734;28;20228;-81
2023/10/31 02:19:51;;;;;;;16.53;7.70;;;;;;;10.61;95.43;95316.63;4937941;28;20625;-80
2023/10/31 02:22:16;;;;;;;14.13;7.40;;;;;;;10.66;95.32;95305.59;4938751;28;20906;-81
2023/10/31 02:24:42;;;;;;;19.03;7.27;;;;;;;10.60;96.00;95315.00;4949024;28;20266;-81
2023/10/31 02:27:10;;;;;;;12.63;6.57;;;;;;;10.80;94.53;95308.13;4952981;28;20711;-80
2023/10/31 02:29:35;;;;;;;16.63;7.40;;;;;;;10.81;94.55;95315.00;4952339;28;20665;-80
2023/10/31 02:32:01;;;;;;;13.53;6.63;;;;;;;10.40;96.77;95314.06;4950219;28;20240;-81
2023/10/31 02:34:27;;;;;;;18.33;7.10;;;;;;;10.59;96.14;95308.16;4954178;28;20288;-81
2023/10/31 02:36:52;;;;;;;17.43;6.63;;;;;;;10.74;94.92;95308.91;4969566;28;20235;-81
2023/10/31 02:39:17;;;;;;;13.83;6.77;;;;;;;10.60;95.61;95309.78;4970007;28;20784;-80
2023/10/31 02:41:43;;;;;;;15.13;6.60;;;;;;;10.59;95.64;95302.94;4982493;28;20238;-81
2023/10/31 02:44:09;;;;;;;15.97;6.93;;;;;;;10.45;96.42;95297.78;4954702;28;20239;-69
2023/10/31 02:46:38;;;;;;;15.53;7.13;;;;;;;10.52;95.79;95299.47;5022349;28;20290;-70
2023/10/31 02:49:03;;;;;;;17.57;6.97;;;;;;;10.46;95.85;95304.66;4978724;28;20249;-70
2023/10/31 02:51:28;;;;;;;18.40;7.37;;;;;;;10.49;95.83;95306.88;5037526;28;20235;-69
2023/10/31 02:53:54;;;;;;;19.93;7.20;;;;;;;10.62;95.04;95309.59;4984614;28;20285;-81
2023/10/31 02:56:19;;;;;;;19.17;7.90;;;;;;;10.65;94.66;95314.47;4968489;28;20268;-80
2023/10/31 02:58:45;;;;;;;15.13;8.03;;;;;;;10.56;95.23;95310.34;4973134;28;20228;-78
2023/10/31 03:01:11;;;;;;;20.37;8.27;;;;;;;10.80;94.45;95308.13;5034482;28;20322;-79
2023/10/31 03:03:36;;;;;;;19.53;8.63;;;;;;;10.59;95.07;95310.78;5035434;28;20312;-79
2023/10/31 03:06:02;;;;;;;18.70;8.77;;;;;;;10.24;96.22;95309.09;4968919;28;20616;-79
2023/10/31 03:08:28;;;;;;;21.53;8.40;;;;;;;10.32;96.46;95314.19;4938073;28;20227;-79
2023/10/31 03:10:53;;;;;;;17.33;8.87;;;;;;;10.37;94.92;95316.22;4972858;28;20231;-81
2023/10/31 03:13:19;;;;;;;16.93;9.00;;;;;;;10.22;95.56;95310.28;5054520;28;20249;-71
2023/10/31 03:15:45;;;;;;;22.03;9.53;;;;;;;10.12;96.14;95316.63;4972492;28;20772;-70
2023/10/31 03:18:11;;;;;;;20.57;9.47;;;;;;;10.13;96.33;95320.03;4971618;28;20251;-69
2023/10/31 03:20:36;;;;;;;19.63;9.97;;;;;;;9.99;96.23;95310.41;4973056;28;20319;-70
2023/10/31 03:23:02;;;;;;;20.87;9.40;;;;;;;10.08;95.19;95315.34;4968625;28;20715;-71
2023/10/31 03:25:27;;;;;;;23.27;10.03;;;;;;;10.01;96.37;95313.66;4974478;28;20304;-80
2023/10/31 03:27:53;;;;;;;22.60;10.60;;;;;;;10.11;94.51;95304.53;4978799;28;20220;-70
2023/10/31 03:30:18;;;;;;;22.93;10.17;;;;;;;9.90;95.21;95301.06;5058355;28;20258;-69
2023/10/31 03:32:44;;;;;;;22.40;9.90;;;;;;;9.74;95.75;95296.09;4987586;28;20706;-71
2023/10/31 03:35:09;;;;;;;20.00;10.27;;;;;;;9.79;96.54;95296.34;5059256;28;20223;-69
2023/10/31 03:37:36;;;;;;;23.40;10.33;;;;;;;9.79;96.61;95284.06;4990203;28;20238;-71
2023/10/31 03:40:01;;;;;;;21.77;10.20;;;;;;;9.77;96.79;95288.66;4957389;28;20717;-70
2023/10/31 03:42:27;;;;;;;23.57;10.67;;;;;;;9.72;96.47;95283.19;4970836;28;20237;-71
2023/10/31 03:44:52;;;;;;;19.90;9.87;;;;;;;9.76;95.45;95268.78;4954122;28;20223;-71
2023/10/31 03:47:18;;;;;;;24.93;10.10;;;;;;;9.64;97.36;95280.72;4992043;28;20270;-70
2023/10/31 03:49:43;;;;;;;18.77;9.80;;;;;;;9.92;96.09;95288.63;4971756;28;20330;-71
2023/10/31 03:52:08;;;;;;;19.57;9.70;;;;;;;10.05;95.54;95292.16;4987209;28;20235;-70
2023/10/31 03:54:34;;;;;;;22.83;10.47;;;;;;;10.13;95.15;95293.88;4971448;28;20231;-70
2023/10/31 03:56:59;;;;;;;23.70;10.90;;;;;;;9.91;96.12;95303.50;4956928;28;20238;-70
2023/10/31 03:59:25;;;;;;;23.40;10.97;;;;;;;10.19;95.05;95294.94;4957834;28;20227;-70
2023/10/31 04:01:51;;;;;;;29.00;11.63;;;;;;;9.64;97.57;95290.34;4960771;28;21186;-70
2023/10/31 04:04:17;;;;;;;25.90;11.93;;;;;;;9.88;97.69;95303.06;4954697;28;20376;-70
2023/10/31 04:06:43;;;;;;;27.17;12.13;;;;;;;9.91;95.99;95297.47;4961034;28;20235;-70
2023/10/31 04:09:09;;;;;;;24.30;11.83;;;;;;;9.90;96.71;95295.84;4987974;28;20950;-70
2023/10/31 04:11:36;;;;;;;25.10;11.60;;;;;;;9.84;96.35;95294.00;4955067;28;20334;-70
2023/10/31 04:14:03;;;;;;;25.30;11.57;;;;;;;9.92;95.36;95299.09;4986338;28;20540;-70
2023/10/31 04:16:28;;;;;;;28.47;11.10;;;;;;;9.66;95.97;95293.56;4959956;28;21031;-70
2023/10/31 04:18:54;;;;;;;22.13;10.90;;;;;;;9.58;96.61;95291.88;4961430;28;20224;-70
2023/10/31 04:21:19;;;;;;;28.00;11.03;;;;;;;9.36;96.88;95288.41;4954393;28;20215;-72
2023/10/31 04:23:44;;;;;;;26.67;10.23;;;;;;;9.37;96.21;95279.59;4969685;28;20943;-71
2023/10/31 04:26:10;;;;;;;23.50;10.10;;;;;;;9.43;95.58;95273.63;4992794;28;20230;-70
2023/10/31 04:28:35;;;;;;;21.03;10.23;;;;;;;9.34;96.22;95266.88;4976174;28;20832;-80
2023/10/31 04:31:01;;;;;;;23.70;10.57;;;;;;;9.02;97.28;95259.47;4962651;28;20239;-80
2023/10/31 04:33:26;;;;;;;23.70;10.20;;;;;;;9.27;96.99;95257.34;4990154;28;20243;-80
2023/10/31 04:35:52;;;;;;;24.57;10.30;;;;;;;9.11;96.89;95255.78;4951819;28;20238;-78
2023/10/31 04:38:17;;;;;;;28.80;10.37;;;;;;;9.04;97.43;95267.13;4941534;28;20243;-80
2023/10/31 04:40:43;;;;;;;22.20;10.03;;;;;;;9.19;98.23;95271.34;4982914;28;20239;-80
2023/10/31 04:43:08;;;;;;;24.50;10.47;;;;;;;9.49;96.92;95270.28;4972536;28;20675;-80
2023/10/31 04:45:34;;;;;;;22.00;10.17;;;;;;;9.75;95.77;95267.13;4968201;28;20257;-80
2023/10/31 04:47:59;;;;;;;25.00;10.20;;;;;;;9.83;95.50;95274.88;4935643;28;20235;-79
2023/10/31 04:50:24;;;;;;;26.43;10.50;;;;;;;9.70;94.81;95285.19;4966453;28;20231;-79
2023/10/31 04:52:50;;;;;;;22.37;10.00;;;;;;;9.43;95.04;95285.91;4967698;28;20232;-80
2023/10/31 04:55:15;;;;;;;24.17;10.13;;;;;;;9.36;95.13;95295.47;4949172;28;20234;-79
2023/10/31 04:57:41;;;;;;;21.13;9.23;;;;;;;9.41;95.51;95290.47;4953308;28;20231;-79
2023/10/31 05:00:08;;;;;;;24.87;10.00;;;;;;;9.24;96.92;95296.91;4955551;28;20238;-80
2023/10/31 05:02:33;;;;;;;22.20;10.60;;;;;;;9.18;96.99;95305.47;4953613;28;20254;-80
2023/10/31 05:04:59;;;;;;;21.07;10.50;;;;;;;8.96;98.25;95301.13;5032621;28;20884;-79
2023/10/31 05:07:25;;;;;;;23.43;10.17;;;;;;;9.09;97.87;95296.91;4938153;28;20231;-80
2023/10/31 05:09:50;;;;;;;22.70;9.70;;;;;;;9.20;97.45;95299.06;4939168;28;20751;-79
2023/10/31 05:12:15;;;;;;;25.20;10.70;;;;;;;9.29;96.45;95297.19;4982731;28;20709;-70
2023/10/31 05:14:41;;;;;;;24.57;10.20;;;;;;;9.10;97.41;95295.13;4955377;28;20310;-70
2023/10/31 05:17:06;;;;;;;23.37;9.97;;;;;;;9.17;97.26;95288.97;4971142;28;20231;-69
2023/10/31 05:19:32;;;;;;;23.20;10.10;;;;;;;9.18;96.61;95290.59;4987193;28;20219;-70
2023/10/31 05:21:57;;;;;;;19.47;9.90;;;;;;;9.21;97.83;95281.59;4980571;28;20289;-70
2023/10/31 05:24:23;;;;;;;24.93;10.03;;;;;;;9.16;97.64;95295.19;5034193;28;20259;-71
2023/10/31 05:26:48;;;;;;;20.60;9.50;;;;;;;9.45;97.20;95291.75;4976977;28;20296;-68
2023/10/31 05:29:14;;;;;;;23.90;10.07;;;;;;;9.67;96.39;95296.03;4988316;28;20228;-70
2023/10/31 05:31:41;;;;;;;24.83;9.67;;;;;;;9.59;96.94;95297.91;4971880;28;20239;-68
2023/10/31 05:34:06;;;;;;;26.77;10.37;;;;;;;9.60;96.68;95305.56;4960510;28;20238;-69
2023/10/31 05:36:32;;;;;;;28.73;10.20;;;;;;;9.53;97.35;95309.13;4980132;28;20236;-69
2023/10/31 05:38:58;;;;;;;21.50;9.87;;;;;;;9.57;97.47;95318.19;4969114;28;20708;-69
2023/10/31 05:41:23;;;;;;;22.20;9.70;;;;;;;9.76;97.20;95312.38;4982918;28;20234;-70
2023/10/31 05:43:49;;;;;;;27.73;9.70;;;;;;;9.83;96.71;95318.50;4965765;28;20227;-70
2023/10/31 05:46:14;;;;;;;25.17;10.40;;;;;;;9.74;96.33;95309.16;4934740;28;20231;-68
2023/10/31 05:48:41;;;;;;;23.03;10.10;;;;;;;9.55;97.74;95310.56;4958974;28;20238;-70
2023/10/31 05:51:16;;;;;;;23.57;9.67;;;;;;;9.57;97.83;95308.56;4951845;28;20232;-71
2023/10/31 05:53:43;;;;;;;28.23;11.00;;;;;;;9.77;97.61;95311.38;4951841;28;20230;-69
2023/10/31 05:56:09;;;;;;;30.43;11.67;;;;;;;9.94;96.38;95316.19;4949210;28;21009;-70
2023/10/31 05:58:35;;;;;;;33.10;12.00;;;;;;;10.05;95.92;95330.59;4963448;28;20262;-69
2023/10/31 06:01:00;;;;;;;29.67;12.13;;;;;;;10.04;95.64;95336.81;4953498;28;20239;-69
2023/10/31 06:03:26;;;;;;;27.10;11.43;;;;;;;10.03;94.90;95332.59;4945402;28;20265;-69
2023/10/31 06:05:51;;;;;;;25.80;11.70;;;;;;;10.01;93.94;95337.19;4977437;28;20703;-69
2023/10/31 06:08:17;;;;;;;28.33;11.70;;;;;;;10.04;93.43;95336.81;4962149;28;20223;-72
2023/10/31 06:10:43;;;;;;;28.77;10.93;;;;;;;10.02;93.22;95341.44;4969209;28;20651;-71
2023/10/31 06:13:08;;;;;;;28.73;11.80;;;;;;;10.05;93.71;95346.28;4950256;28;20870;-71
2023/10/31 06:15:34;;;;;;;37.73;12.60;;;;;;;10.04;92.97;95342.03;4947977;28;20219;-70
2023/10/31 06:17:59;;;;;;;30.83;12.37;;;;;;;10.24;94.41;95343.09;4982400;28;20670;-71
2023/10/31 06:20:25;;;;;;;30.53;11.70;;;;;;;10.43;92.25;95345.09;4977626;28;20235;-71
2023/10/31 06:22:51;;;;;;;29.90;11.90;;;;;;;10.51;92.03;95339.69;4955390;28;20233;-70
2023/10/31 06:25:16;;;;;;;26.83;11.37;;;;;;;10.43;92.35;95331.19;4963242;28;20288;-70
2023/10/31 06:27:42;;;;;;;26.30;11.17;;;;;;;10.36;92.76;95327.72;4942539;28;20231;-70
2023/10/31 06:30:08;;;;;;;27.77;11.57;;;;;;;10.47;92.19;95335.84;4985368;28;20288;-70
2023/10/31 06:32:34;;;;;;;24.03;11.00;;;;;;;10.75;92.24;95336.69;4965547;28;20243;-71
2023/10/31 06:34:59;;;;;;;27.90;11.17;;;;;;;10.91;90.80;95338.22;4980527;28;20224;-82
2023/10/31 06:37:25;;;;;;;25.37;11.67;;;;;;;10.94;91.59;95337.03;4967198;28;20669;-83
2023/10/31 06:39:51;;;;;;;28.03;11.40;;;;;;;11.10;90.34;95337.53;4970576;28;21213;-85
2023/10/31 06:42:17;;;;;;;27.77;11.53;;;;;;;11.11;90.54;95339.16;4977074;28;20234;-80
2023/10/31 06:44:42;;;;;;;30.53;11.77;;;;;;;11.26;90.57;95331.16;4977534;28;20216;-79
2023/10/31 06:47:08;;;;;;;27.67;12.10;;;;;;;11.35;89.90;95322.97;4979179;28;20247;-79
2023/10/31 06:49:33;;;;;;;28.47;12.00;;;;;;;11.40;90.19;95327.63;4970379;28;20236;-82
2023/10/31 06:51:59;;;;;;;27.17;11.60;;;;;;;11.41;89.69;95329.25;4971722;28;20227;-81
2023/10/31 06:54:24;;;;;;;25.60;11.87;;;;;;;11.33;89.80;95318.91;4964826;28;20227;-81
2023/10/31 06:56:49;;;;;;;22.97;11.90;;;;;;;11.44;89.87;95319.16;4962627;28;20232;-80
2023/10/31 06:59:15;;;;;;;34.83;13.27;;;;;;;11.48;88.94;95330.91;4952286;28;20227;-81
2023/10/31 07:01:40;;;;;;;27.83;12.50;;;;;;;11.64;89.01;95323.69;4968931;28;20318;-81
2023/10/31 07:04:06;;;;;;;24.73;11.53;;;;;;;11.68;88.44;95320.50;4968255;28;20261;-81
2023/10/31 07:06:31;;;;;;;25.57;11.23;;;;;;;11.70;88.95;95315.88;4956887;28;20246;-81
2023/10/31 07:08:57;;;;;;;21.57;10.80;;;;;;;11.70;88.88;95322.94;4980748;28;20242;-81
2023/10/31 07:11:23;;;;;;;22.43;11.27;;;;;;;11.88;88.82;95320.56;4947446;28;20223;-81
2023/10/31 07:13:48;;;;;;;25.03;11.67;;;;;;;11.97;88.40;95328.06;4955051;28;20255;-81
2023/10/31 07:16:13;;;;;;;25.83;11.67;;;;;;;12.07;87.34;95310.13;4981146;28;20725;-82
2023/10/31 07:18:39;;;;;;;27.63;11.73;;;;;;;12.11;87.66;95311.34;4954550;28;20994;-82
2023/10/31 07:21:05;;;;;;;27.03;11.77;;;;;;;12.18;87.71;95307.94;4951977;28;20289;-81
2023/10/31 07:23:31;;;;;;;25.57;11.83;;;;;;;12.17;88.82;95315.00;4949472;28;20239;-80
2023/10/31 07:25:56;;;;;;;29.50;12.10;;;;;;;12.33;86.50;95317.22;4952269;28;20227;-80
2023/10/31 07:28:22;;;;;;;29.53;11.70;;;;;;;12.38;87.13;95306.13;4965348;28;20322;-79
2023/10/31 07:30:48;;;;;;;25.03;12.13;;;;;;;12.50;86.23;95309.78;4990496;28;20811;-81
2023/10/31 07:33:13;;;;;;;31.10;11.87;;;;;;;12.52;86.56;95303.31;4967229;28;20799;-82
2023/10/31 07:35:38;;;;;;;26.77;11.73;;;;;;;12.59;86.19;95311.19;4950413;28;20681;-81
2023/10/31 07:38:04;;;;;;;24.83;11.63;;;;;;;12.76;85.49;95304.53;4954701;28;20661;-82
2023/10/31 07:40:29;;;;;;;25.07;10.70;;;;;;;12.83;85.12;95311.38;4952788;28;20240;-80
2023/10/31 07:42:55;;;;;;;27.00;10.93;;;;;;;13.03;84.86;95313.19;4992810;28;20235;-82
2023/10/31 07:45:20;;;;;;;24.80;10.90;;;;;;;13.09;84.72;95294.81;4940727;28;20314;-81
2023/10/31 07:47:46;;;;;;;25.73;10.07;;;;;;;13.15;83.80;95286.13;4982783;28;20232;-82
2023/10/31 07:50:13;;;;;;;29.93;9.87;;;;;;;13.20;83.71;95282.88;4990755;28;20608;-84
2023/10/31 07:52:38;;;;;;;22.10;9.77;;;;;;;13.25;83.50;95283.06;4961140;28;20650;-81
2023/10/31 07:55:04;;;;;;;17.17;9.63;;;;;;;13.32;84.09;95271.50;4973754;28;20228;-81
2023/10/31 07:57:29;;;;;;;22.03;8.53;;;;;;;13.45;85.62;95281.16;4964898;28;20244;-81
2023/10/31 07:59:55;;;;;;;21.77;9.03;;;;;;;13.68;84.24;95267.50;4948820;28;20248;-81
2023/10/31 08:02:21;;;;;;;19.73;8.93;;;;;;;13.80;83.12;95271.91;4980771;28;20227;-81
2023/10/31 08:04:46;;;;;;;25.53;9.63;;;;;;;13.87;82.98;95264.78;4988528;28;20223;-82
2023/10/31 08:07:12;;;;;;;20.40;9.03;;;;;;;13.74;84.17;95271.91;4969340;28;20229;-81
2023/10/31 08:09:37;;;;;;;18.97;9.20;;;;;;;13.84;83.02;95251.22;4978143;28;20235;-82
2023/10/31 08:12:03;;;;;;;18.53;8.83;;;;;;;13.86;84.05;95263.16;4958778;28;20231;-81
2023/10/31 08:14:28;;;;;;;18.93;8.60;;;;;;;13.91;83.89;95265.16;4965230;28;21256;-82
2023/10/31 08:16:54;;;;;;;19.53;8.47;;;;;;;13.96;84.95;95263.50;4985272;28;20243;-81
2023/10/31 08:19:19;;;;;;;19.53;8.10;;;;;;;14.05;84.17;95256.97;4977034;28;20278;-82
2023/10/31 08:21:45;;;;;;;18.23;8.20;;;;;;;14.18;84.48;95256.09;4982825;28;20238;-82
2023/10/31 08:24:13;;;;;;;21.77;8.00;;;;;;;14.31;84.07;95244.66;4980890;28;20303;-82
2023/10/31 08:26:38;;;;;;;20.70;8.90;;;;;;;14.38;83.32;95238.31;4985191;28;20236;-82
2023/10/31 08:29:04;;;;;;;18.33;8.40;;;;;;;14.43;83.10;95238.50;4967712;28;20603;-81
2023/10/31 08:31:29;;;;;;;17.13;7.90;;;;;;;14.61;81.68;95232.47;5023444;28;20227;-81
2023/10/31 08:33:55;;;;;;;19.30;8.53;;;;;;;14.70;81.61;95226.72;4969410;28;20641;-82
2023/10/31 08:36:20;;;;;;;16.90;8.73;;;;;;;14.78;81.43;95212.47;4959052;28;20614;-80
2023/10/31 08:38:46;;;;;;;16.17;7.30;;;;;;;14.86;80.81;95220.06;4956064;28;20250;-82
2023/10/31 08:41:11;;;;;;;13.73;6.90;;;;;;;14.96;80.56;95219.56;5058422;28;20234;-81
2023/10/31 08:43:37;;;;;;;17.27;6.90;;;;;;;14.98;81.05;95217.50;5036251;28;20219;-81
2023/10/31 08:46:02;;;;;;;14.00;7.83;;;;;;;15.04;80.78;95216.66;5063546;28;20234;-82
2023/10/31 08:48:28;;;;;;;15.97;8.10;;;;;;;15.22;79.70;95204.25;4950826;28;20747;-84
2023/10/31 08:50:53;;;;;;;17.93;6.20;;;;;;;15.20;78.77;95203.69;4989023;28;20309;-81
2023/10/31 08:53:19;;;;;;;14.10;6.90;;;;;;;15.24;79.05;95196.13;4957200;28;20649;-81
2023/10/31 08:55:44;;;;;;;16.73;6.53;;;;;;;15.30;78.58;95187.34;5024320;28;20239;-81
2023/10/31 08:58:13;;;;;;;12.57;6.90;;;;;;;15.36;78.34;95184.59;5029143;28;20702;-81
2023/10/31 09:00:40;;;;;;;18.13;7.43;;;;;;;15.57;77.72;95183.34;4969201;28;20231;-81
2023/10/31 09:03:06;;;;;;;17.20;7.90;;;;;;;15.59;76.77;95183.13;4942685;28;20227;-81
2023/10/31 09:05:31;;;;;;;18.27;7.17;;;;;;;15.30;78.07;95180.22;4957969;28;20246;-81
2023/10/31 09:07:57;;;;;;;23.10;7.30;;;;;;;15.43;78.55;95177.41;4981380;28;20223;-80
2023/10/31 09:10:23;;;;;;;22.47;8.13;;;;;;;15.59;78.12;95168.13;4956960;28;20619;-80
2023/10/31 09:12:48;;;;;;;20.57;8.27;;;;;;;15.66;78.22;95166.19;5015578;28;20253;-81
2023/10/31 09:15:13;;;;;;;17.70;7.47;;;;;;;15.77;77.48;95156.69;5060745;28;20224;-80
2023/10/31 09:17:39;;;;;;;21.77;7.87;;;;;;;15.90;76.75;95152.03;4987585;28;20237;-85
2023/10/31 09:20:05;;;;;;;20.13;7.93;;;;;;;16.04;75.08;95153.44;4971454;28;21183;-82
2023/10/31 09:22:30;;;;;;;19.90;8.03;;;;;;;16.14;74.31;95145.72;5046609;28;20248;-81
2023/10/31 09:24:56;;;;;;;21.37;8.63;;;;;;;16.02;74.85;95141.50;4980076;28;20215;-83
2023/10/31 09:27:21;;;;;;;24.10;8.57;;;;;;;16.07;74.80;95142.41;5003227;28;20346;-83
2023/10/31 09:29:47;;;;;;;18.47;8.20;;;;;;;16.31;74.82;95135.28;4958352;28;20223;-81
2023/10/31 09:32:14;;;;;;;23.30;9.20;;;;;;;16.41;74.18;95124.16;5006852;28;20264;-83
2023/10/31 09:34:40;;;;;;;30.30;9.50;;;;;;;16.38;74.05;95125.44;4947646;28;20275;-82
2023/10/31 09:37:05;;;;;;;29.70;8.77;;;;;;;16.36;75.17;95118.78;4982431;28;20231;-80
2023/10/31 09:39:31;;;;;;;20.60;10.23;;;;;;;16.48;73.77;95119.59;5010463;28;20316;-81
2023/10/31 09:41:56;;;;;;;27.57;9.50;;;;;;;16.43;73.74;95116.81;4992917;28;20246;-82
2023/10/31 09:44:22;;;;;;;27.23;9.70;;;;;;;16.57;73.48;95099.72;5049158;28;20262;-81
2023/10/31 09:46:48;;;;;;;26.67;9.57;;;;;;;16.67;72.13;95087.50;4970781;28;20239;-82
2023/10/31 09:49:13;;;;;;;27.57;9.20;;;;;;;16.77;71.90;95094.84;5039519;28;20227;-83
2023/10/31 09:51:39;;;;;;;25.17;9.50;;;;;;;16.82;71.38;95092.31;4957910;28;20239;-82
2023/10/31 09:54:04;;;;;;;24.63;9.07;;;;;;;16.81;72.43;95088.09;4970464;28;20705;-82
2023/10/31 09:56:34;;;;;;;23.67;9.03;;;;;;;16.92;72.72;95081.13;4954717;28;20291;-69
2023/10/31 09:59:01;;;;;;;22.83;9.57;;;;;;;17.08;71.56;95077.75;4962209;28;20231;-70
2023/10/31 10:01:26;;;;;;;18.17;8.20;;;;;;;17.13;70.78;95065.44;5037768;28;20281;-70
2023/10/31 10:03:53;;;;;;;20.97;7.87;;;;;;;17.34;69.17;95063.94;5051286;28;20697;-70
2023/10/31 10:06:21;;;;;;;21.43;7.87;;;;;;;17.32;69.15;95058.91;4973945;28;20267;-70
2023/10/31 10:08:46;;;;;;;24.70;7.40;;;;;;;17.41;69.01;95054.06;4969716;28;20231;-70
2023/10/31 10:11:12;;;;;;;18.17;6.83;;;;;;;17.49;68.38;95051.00;5040473;28;20620;-70
2023/10/31 10:13:37;;;;;;;15.40;6.70;;;;;;;17.52;68.89;95041.81;4984330;28;20300;-69
2023/10/31 10:16:03;;;;;;;19.70;6.70;;;;;;;17.64;67.97;95040.72;4979704;28;21045;-70
2023/10/31 10:18:29;;;;;;;21.00;7.13;;;;;;;17.49;69.13;95035.13;4984608;28;20724;-70
2023/10/31 10:21:00;;;;;;;18.40;7.20;;;;;;;17.47;69.02;95027.44;4976718;28;20233;-69
2023/10/31 10:23:26;;;;;;;15.60;6.30;;;;;;;17.69;68.07;95024.91;5044684;28;20235;-71
2023/10/31 10:25:51;;;;;;;16.67;6.70;;;;;;;17.86;66.08;95023.06;4971283;28;20323;-69
2023/10/31 10:28:19;;;;;;;13.40;6.00;;;;;;;17.93;66.45;95015.75;5037343;28;20266;-70
2023/10/31 10:30:48;;;;;;;16.07;5.93;;;;;;;17.95;65.19;95011.00;4962512;28;20227;-71
2023/10/31 10:33:14;;;;;;;13.97;5.60;;;;;;;17.97;64.04;95018.69;4974181;28;20238;-69
2023/10/31 10:35:39;;;;;;;14.10;5.00;;;;;;;17.86;64.75;95011.66;5039459;28;20231;-69
2023/10/31 10:38:12;;;;;;;11.60;4.97;;;;;;;17.91;64.13;95017.03;4971776;28;20261;-70
2023/10/31 10:40:42;;;;;;;13.17;5.63;;;;;;;18.08;62.43;95009.84;4945852;28;20243;-70
2023/10/31 10:43:23;;;;;;;17.67;5.43;;;;;;;18.12;62.82;94997.75;4950298;28;20243;-70
2023/10/31 10:45:58;;;;;;;17.13;5.13;;;;;;;18.19;63.61;94987.78;4948451;28;20307;-70
2023/10/31 10:48:27;;;;;;;12.30;4.97;;;;;;;18.12;64.75;94979.19;4955936;28;20223;-69
2023/10/31 10:51:07;;;;;;;22.13;5.27;;;;;;;18.34;62.45;94973.91;4931109;28;20323;-68
2023/10/31 10:53:37;;;;;;;16.70;4.57;;;;;;;18.66;57.98;94975.66;4948281;28;20604;-70
2023/10/31 10:56:09;;;;;;;11.50;4.63;;;;;;;18.70;58.76;94966.16;4982780;28;20292;-71
2023/10/31 10:58:48;;;;;;;12.67;4.70;;;;;;;18.73;57.75;94960.38;4949416;28;20227;-70
2023/10/31 11:01:13;;;;;;;11.50;4.60;;;;;;;18.76;58.43;94959.88;4977678;28;20240;-70
2023/10/31 11:03:40;;;;;;;12.70;4.10;;;;;;;18.70;56.72;94950.25;4980894;28;20225;-71
2023/10/31 11:06:05;;;;;;;10.73;4.10;;;;;;;18.70;57.32;94958.19;4953308;28;20228;-69
2023/10/31 11:08:31;;;;;;;8.30;3.67;;;;;;;18.78;56.24;94952.47;4953220;28;20234;-70
2023/10/31 11:10:57;;;;;;;11.37;3.73;;;;;;;18.81;57.84;94957.28;4966238;28;20232;-69
2023/10/31 11:13:23;;;;;;;8.73;3.70;;;;;;;18.75;55.75;94949.50;4954084;28;20542;-70
2023/10/31 11:15:50;;;;;;;14.47;3.80;;;;;;;18.83;56.16;94944.56;4945933;28;20220;-70
2023/10/31 11:18:15;;;;;;;13.50;3.50;;;;;;;18.87;52.84;94934.25;4950826;28;20232;-69